sensor_id;sensor_type;location;lat;lon;timestamp;P1;durP1;ratioP1;P2;durP2;ratioP2
52978;SDS011;63430;53.186;6.598;2022-10-31T00:00:06;16.65;;;9.32;;
52978;SDS011;63430;53.186;6.598;2022-10-31T00:02:10;19.15;;;9.20;;
52978;SDS011;63430;53.186;6.598;2022-10-31T00:04:12;19.63;;;9.40;;
52978;SDS011;63430;53.186;6.598;2022-10-31T00:06:15;18.55;;;9.32;;
52978;SDS011;63430;53.186;6.598;2022-10-31T00:08:22;22.95;;;10.15;;
52978;SDS011;63430;53.186;6.598;2022-10-31T00:10:24;22.73;;;9.70;;
52978;SDS011;63430;53.186;6.598;2022-10-31T00:12:26;19.20;;;10.57;;
52978;SDS011;63430;53.186;6.598;2022-10-31T00:14:29;17.70;;;10.00;;
52978;SDS011;63430;53.186;6.598;2022-10-31T00:16:31;24.75;;;10.15;;
52978;SDS011;63430;53.186;6.598;2022-10-31T00:18:33;18.25;;;10.25;;
52978;SDS011;63430;53.186;6.598;2022-10-31T00:20:36;14.15;;;8.82;;
52978;SDS011;63430;53.186;6.598;2022-10-31T00:22:38;21.55;;;9.43;;
52978;SDS011;63430;53.186;6.598;2022-10-31T00:24:43;20.65;;;9.90;;
52978;SDS011;63430;53.186;6.598;2022-10-31T00:26:45;17.13;;;10.45;;
52978;SDS011;63430;53.186;6.598;2022-10-31T00:28:47;18.60;;;10.18;;
52978;SDS011;63430;53.186;6.598;2022-10-31T00:30:50;16.10;;;9.82;;
52978;SDS011;63430;53.186;6.598;2022-10-31T00:32:52;20.35;;;10.45;;
52978;SDS011;63430;53.186;6.598;2022-10-31T00:34:55;21.67;;;9.65;;
52978;SDS011;63430;53.186;6.598;2022-10-31T00:36:57;18.95;;;9.77;;
52978;SDS011;63430;53.186;6.598;2022-10-31T00:38:59;22.10;;;10.27;;
52978;SDS011;63430;53.186;6.598;2022-10-31T00:41:05;18.90;;;11.15;;
52978;SDS011;63430;53.186;6.598;2022-10-31T00:43:07;19.35;;;9.88;;
52978;SDS011;63430;53.186;6.598;2022-10-31T00:45:09;20.02;;;9.82;;
52978;SDS011;63430;53.186;6.598;2022-10-31T00:47:12;18.33;;;9.55;;
52978;SDS011;63430;53.186;6.598;2022-10-31T00:49:16;18.75;;;9.70;;
52978;SDS011;63430;53.186;6.598;2022-10-31T00:51:19;16.08;;;9.75;;
52978;SDS011;63430;53.186;6.598;2022-10-31T00:53:21;17.13;;;9.10;;
52978;SDS011;63430;53.186;6.598;2022-10-31T00:55:24;22.63;;;10.07;;
52978;SDS011;63430;53.186;6.598;2022-10-31T00:57:29;22.55;;;10.38;;
52978;SDS011;63430;53.186;6.598;2022-10-31T00:59:31;17.67;;;9.25;;
52978;SDS011;63430;53.186;6.598;2022-10-31T01:01:33;19.58;;;10.43;;
52978;SDS011;63430;53.186;6.598;2022-10-31T01:03:36;20.40;;;10.57;;
52978;SDS011;63430;53.186;6.598;2022-10-31T01:05:40;18.48;;;10.80;;
52978;SDS011;63430;53.186;6.598;2022-10-31T01:07:42;20.15;;;10.65;;
52978;SDS011;63430;53.186;6.598;2022-10-31T01:09:44;18.17;;;9.20;;
52978;SDS011;63430;53.186;6.598;2022-10-31T01:11:46;16.45;;;9.57;;
52978;SDS011;63430;53.186;6.598;2022-10-31T01:13:52;15.88;;;9.27;;
52978;SDS011;63430;53.186;6.598;2022-10-31T01:15:55;23.80;;;10.13;;
52978;SDS011;63430;53.186;6.598;2022-10-31T01:17:58;16.35;;;9.70;;
52978;SDS011;63430;53.186;6.598;2022-10-31T01:20:01;24.30;;;10.55;;
52978;SDS011;63430;53.186;6.598;2022-10-31T01:22:03;17.27;;;10.15;;
52978;SDS011;63430;53.186;6.598;2022-10-31T01:24:06;16.77;;;9.57;;
52978;SDS011;63430;53.186;6.598;2022-10-31T01:26:09;23.35;;;9.68;;
52978;SDS011;63430;53.186;6.598;2022-10-31T01:28:13;20.30;;;8.95;;
52978;SDS011;63430;53.186;6.598;2022-10-31T01:30:18;23.10;;;9.57;;
52978;SDS011;63430;53.186;6.598;2022-10-31T01:32:20;19.00;;;9.80;;
52978;SDS011;63430;53.186;6.598;2022-10-31T01:34:22;20.05;;;9.68;;
52978;SDS011;63430;53.186;6.598;2022-10-31T01:36:25;19.35;;;9.25;;
52978;SDS011;63430;53.186;6.598;2022-10-31T01:38:29;18.15;;;10.77;;
52978;SDS011;63430;53.186;6.598;2022-10-31T01:40:32;15.95;;;9.57;;
52978;SDS011;63430;53.186;6.598;2022-10-31T01:42:34;18.83;;;9.63;;
52978;SDS011;63430;53.186;6.598;2022-10-31T01:47:03;16.73;;;9.13;;
52978;SDS011;63430;53.186;6.598;2022-10-31T01:49:10;21.67;;;9.98;;
52978;SDS011;63430;53.186;6.598;2022-10-31T01:51:18;14.05;;;9.02;;
52978;SDS011;63430;53.186;6.598;2022-10-31T01:53:22;16.10;;;9.20;;
52978;SDS011;63430;53.186;6.598;2022-10-31T01:55:28;14.85;;;8.75;;
52978;SDS011;63430;53.186;6.598;2022-10-31T01:57:34;16.80;;;9.32;;
52978;SDS011;63430;53.186;6.598;2022-10-31T01:59:40;18.23;;;9.25;;
52978;SDS011;63430;53.186;6.598;2022-10-31T02:01:46;18.58;;;9.80;;
52978;SDS011;63430;53.186;6.598;2022-10-31T02:03:51;17.60;;;10.18;;
52978;SDS011;63430;53.186;6.598;2022-10-31T02:05:54;23.58;;;9.45;;
52978;SDS011;63430;53.186;6.598;2022-10-31T02:07:58;14.02;;;8.27;;
52978;SDS011;63430;53.186;6.598;2022-10-31T02:10:04;22.00;;;9.43;;
52978;SDS011;63430;53.186;6.598;2022-10-31T02:12:08;18.50;;;9.20;;
52978;SDS011;63430;53.186;6.598;2022-10-31T02:14:12;17.58;;;9.82;;
52978;SDS011;63430;53.186;6.598;2022-10-31T02:16:15;16.77;;;9.00;;
52978;SDS011;63430;53.186;6.598;2022-10-31T02:18:17;17.98;;;8.75;;
52978;SDS011;63430;53.186;6.598;2022-10-31T02:20:23;15.60;;;9.07;;
52978;SDS011;63430;53.186;6.598;2022-10-31T02:22:27;21.48;;;9.35;;
52978;SDS011;63430;53.186;6.598;2022-10-31T02:24:44;19.80;;;9.48;;
52978;SDS011;63430;53.186;6.598;2022-10-31T02:32:17;18.17;;;9.38;;
52978;SDS011;63430;53.186;6.598;2022-10-31T02:34:29;19.38;;;9.02;;
52978;SDS011;63430;53.186;6.598;2022-10-31T02:36:39;14.65;;;9.05;;
52978;SDS011;63430;53.186;6.598;2022-10-31T02:38:48;19.45;;;8.68;;
52978;SDS011;63430;53.186;6.598;2022-10-31T02:40:56;17.15;;;9.05;;
52978;SDS011;63430;53.186;6.598;2022-10-31T02:43:07;16.42;;;9.52;;
52978;SDS011;63430;53.186;6.598;2022-10-31T02:45:35;16.27;;;9.25;;
52978;SDS011;63430;53.186;6.598;2022-10-31T02:47:48;15.63;;;9.38;;
52978;SDS011;63430;53.186;6.598;2022-10-31T02:49:53;19.17;;;9.57;;
52978;SDS011;63430;53.186;6.598;2022-10-31T02:51:59;16.73;;;9.05;;
52978;SDS011;63430;53.186;6.598;2022-10-31T02:54:02;21.00;;;9.25;;
52978;SDS011;63430;53.186;6.598;2022-10-31T02:56:06;20.40;;;9.55;;
52978;SDS011;63430;53.186;6.598;2022-10-31T02:58:13;20.67;;;9.95;;
52978;SDS011;63430;53.186;6.598;2022-10-31T03:00:19;19.45;;;9.70;;
52978;SDS011;63430;53.186;6.598;2022-10-31T03:02:27;19.75;;;10.13;;
52978;SDS011;63430;53.186;6.598;2022-10-31T03:04:52;16.40;;;9.52;;
52978;SDS011;63430;53.186;6.598;2022-10-31T03:07:11;20.10;;;10.73;;
52978;SDS011;63430;53.186;6.598;2022-10-31T03:09:23;17.00;;;10.30;;
52978;SDS011;63430;53.186;6.598;2022-10-31T03:11:29;17.80;;;9.38;;
52978;SDS011;63430;53.186;6.598;2022-10-31T03:13:38;19.38;;;9.50;;
52978;SDS011;63430;53.186;6.598;2022-10-31T03:15:44;16.40;;;8.38;;
52978;SDS011;63430;53.186;6.598;2022-10-31T03:17:52;18.05;;;9.82;;
52978;SDS011;63430;53.186;6.598;2022-10-31T03:20:02;17.20;;;9.18;;
52978;SDS011;63430;53.186;6.598;2022-10-31T03:22:10;18.00;;;9.15;;
52978;SDS011;63430;53.186;6.598;2022-10-31T03:24:17;18.60;;;9.30;;
52978;SDS011;63430;53.186;6.598;2022-10-31T03:26:21;15.75;;;9.13;;
52978;SDS011;63430;53.186;6.598;2022-10-31T03:28:26;20.15;;;9.63;;
52978;SDS011;63430;53.186;6.598;2022-10-31T03:30:35;17.02;;;8.40;;
52978;SDS011;63430;53.186;6.598;2022-10-31T03:32:41;15.57;;;8.98;;
52978;SDS011;63430;53.186;6.598;2022-10-31T03:34:48;19.25;;;9.05;;
52978;SDS011;63430;53.186;6.598;2022-10-31T03:36:55;18.67;;;9.10;;
52978;SDS011;63430;53.186;6.598;2022-10-31T03:39:01;18.05;;;8.73;;
52978;SDS011;63430;53.186;6.598;2022-10-31T03:41:05;18.83;;;9.30;;
52978;SDS011;63430;53.186;6.598;2022-10-31T03:43:13;14.07;;;7.70;;
52978;SDS011;63430;53.186;6.598;2022-10-31T03:45:20;16.63;;;8.73;;
52978;SDS011;63430;53.186;6.598;2022-10-31T03:47:25;19.40;;;9.48;;
52978;SDS011;63430;53.186;6.598;2022-10-31T03:49:27;16.20;;;9.43;;
52978;SDS011;63430;53.186;6.598;2022-10-31T03:51:32;16.60;;;8.93;;
52978;SDS011;63430;53.186;6.598;2022-10-31T03:53:44;17.58;;;10.23;;
52978;SDS011;63430;53.186;6.598;2022-10-31T03:55:52;21.90;;;9.63;;
52978;SDS011;63430;53.186;6.598;2022-10-31T03:57:59;15.55;;;8.88;;
52978;SDS011;63430;53.186;6.598;2022-10-31T04:00:06;18.38;;;8.73;;
52978;SDS011;63430;53.186;6.598;2022-10-31T04:02:11;16.85;;;8.82;;
52978;SDS011;63430;53.186;6.598;2022-10-31T04:04:16;19.40;;;9.15;;
52978;SDS011;63430;53.186;6.598;2022-10-31T04:06:20;16.70;;;8.57;;
52978;SDS011;63430;53.186;6.598;2022-10-31T04:10:30;13.65;;;8.77;;
52978;SDS011;63430;53.186;6.598;2022-10-31T04:12:34;15.13;;;9.25;;
52978;SDS011;63430;53.186;6.598;2022-10-31T04:14:39;18.63;;;8.82;;
52978;SDS011;63430;53.186;6.598;2022-10-31T04:16:43;15.85;;;9.10;;
52978;SDS011;63430;53.186;6.598;2022-10-31T04:18:45;17.17;;;9.52;;
52978;SDS011;63430;53.186;6.598;2022-10-31T04:20:48;18.00;;;9.82;;
52978;SDS011;63430;53.186;6.598;2022-10-31T04:22:51;14.25;;;8.60;;
52978;SDS011;63430;53.186;6.598;2022-10-31T04:24:53;16.73;;;8.25;;
52978;SDS011;63430;53.186;6.598;2022-10-31T04:26:58;14.93;;;8.65;;
52978;SDS011;63430;53.186;6.598;2022-10-31T04:29:00;14.90;;;8.60;;
52978;SDS011;63430;53.186;6.598;2022-10-31T04:31:03;17.13;;;9.93;;
52978;SDS011;63430;53.186;6.598;2022-10-31T04:33:05;16.70;;;9.32;;
52978;SDS011;63430;53.186;6.598;2022-10-31T04:35:08;17.48;;;9.13;;
52978;SDS011;63430;53.186;6.598;2022-10-31T04:37:10;19.33;;;10.18;;
52978;SDS011;63430;53.186;6.598;2022-10-31T04:39:12;14.95;;;9.05;;
52978;SDS011;63430;53.186;6.598;2022-10-31T04:41:14;14.40;;;8.27;;
52978;SDS011;63430;53.186;6.598;2022-10-31T04:43:19;13.15;;;7.78;;
52978;SDS011;63430;53.186;6.598;2022-10-31T04:45:25;14.88;;;8.50;;
52978;SDS011;63430;53.186;6.598;2022-10-31T04:47:27;17.08;;;9.25;;
52978;SDS011;63430;53.186;6.598;2022-10-31T04:49:31;14.65;;;8.75;;
52978;SDS011;63430;53.186;6.598;2022-10-31T04:51:34;14.60;;;9.35;;
52978;SDS011;63430;53.186;6.598;2022-10-31T04:53:36;15.90;;;9.88;;
52978;SDS011;63430;53.186;6.598;2022-10-31T04:55:39;14.85;;;8.52;;
52978;SDS011;63430;53.186;6.598;2022-10-31T04:57:41;19.85;;;9.30;;
52978;SDS011;63430;53.186;6.598;2022-10-31T04:59:46;18.38;;;9.13;;
52978;SDS011;63430;53.186;6.598;2022-10-31T05:01:49;20.75;;;9.48;;
52978;SDS011;63430;53.186;6.598;2022-10-31T05:03:51;16.38;;;8.63;;
52978;SDS011;63430;53.186;6.598;2022-10-31T05:05:53;15.45;;;8.13;;
52978;SDS011;63430;53.186;6.598;2022-10-31T05:07:55;18.33;;;8.40;;
52978;SDS011;63430;53.186;6.598;2022-10-31T05:09:58;16.80;;;9.77;;
52978;SDS011;63430;53.186;6.598;2022-10-31T05:12:00;16.75;;;8.57;;
52978;SDS011;63430;53.186;6.598;2022-10-31T05:14:02;18.23;;;9.95;;
52978;SDS011;63430;53.186;6.598;2022-10-31T05:16:07;17.63;;;9.65;;
52978;SDS011;63430;53.186;6.598;2022-10-31T05:18:09;16.02;;;9.45;;
52978;SDS011;63430;53.186;6.598;2022-10-31T05:20:12;14.90;;;8.90;;
52978;SDS011;63430;53.186;6.598;2022-10-31T05:22:15;17.98;;;9.77;;
52978;SDS011;63430;53.186;6.598;2022-10-31T05:24:17;18.65;;;9.80;;
52978;SDS011;63430;53.186;6.598;2022-10-31T05:26:23;15.23;;;9.43;;
52978;SDS011;63430;53.186;6.598;2022-10-31T05:28:25;16.90;;;9.90;;
52978;SDS011;63430;53.186;6.598;2022-10-31T05:30:28;16.77;;;9.68;;
52978;SDS011;63430;53.186;6.598;2022-10-31T05:32:39;22.73;;;10.07;;
52978;SDS011;63430;53.186;6.598;2022-10-31T05:34:42;17.15;;;10.13;;
52978;SDS011;63430;53.186;6.598;2022-10-31T05:36:44;17.92;;;10.18;;
52978;SDS011;63430;53.186;6.598;2022-10-31T05:38:46;17.27;;;10.23;;
52978;SDS011;63430;53.186;6.598;2022-10-31T05:40:53;19.85;;;9.55;;
52978;SDS011;63430;53.186;6.598;2022-10-31T05:42:59;20.58;;;9.68;;
52978;SDS011;63430;53.186;6.598;2022-10-31T05:45:01;18.02;;;10.48;;
52978;SDS011;63430;53.186;6.598;2022-10-31T05:47:04;18.65;;;10.32;;
52978;SDS011;63430;53.186;6.598;2022-10-31T05:49:09;18.00;;;9.93;;
52978;SDS011;63430;53.186;6.598;2022-10-31T05:51:12;18.00;;;11.45;;
52978;SDS011;63430;53.186;6.598;2022-10-31T05:53:14;17.10;;;9.50;;
52978;SDS011;63430;53.186;6.598;2022-10-31T05:55:17;19.33;;;10.35;;
52978;SDS011;63430;53.186;6.598;2022-10-31T05:57:20;17.77;;;10.30;;
52978;SDS011;63430;53.186;6.598;2022-10-31T05:59:23;16.65;;;11.13;;
52978;SDS011;63430;53.186;6.598;2022-10-31T06:01:25;18.05;;;11.15;;
52978;SDS011;63430;53.186;6.598;2022-10-31T06:03:27;21.55;;;11.38;;
52978;SDS011;63430;53.186;6.598;2022-10-31T06:05:32;20.55;;;11.82;;
52978;SDS011;63430;53.186;6.598;2022-10-31T06:07:35;18.48;;;11.07;;
52978;SDS011;63430;53.186;6.598;2022-10-31T06:09:38;20.48;;;10.68;;
52978;SDS011;63430;53.186;6.598;2022-10-31T06:11:44;17.50;;;10.98;;
52978;SDS011;63430;53.186;6.598;2022-10-31T06:13:47;20.08;;;11.20;;
52978;SDS011;63430;53.186;6.598;2022-10-31T06:15:49;20.20;;;11.18;;
52978;SDS011;63430;53.186;6.598;2022-10-31T06:17:59;20.00;;;11.65;;
52978;SDS011;63430;53.186;6.598;2022-10-31T06:20:04;20.00;;;11.27;;
52978;SDS011;63430;53.186;6.598;2022-10-31T06:22:09;23.23;;;11.25;;
52978;SDS011;63430;53.186;6.598;2022-10-31T06:24:12;22.60;;;10.52;;
52978;SDS011;63430;53.186;6.598;2022-10-31T06:26:16;22.03;;;10.80;;
52978;SDS011;63430;53.186;6.598;2022-10-31T06:28:18;22.40;;;11.05;;
52978;SDS011;63430;53.186;6.598;2022-10-31T06:30:20;19.33;;;10.50;;
52978;SDS011;63430;53.186;6.598;2022-10-31T06:32:23;21.83;;;11.15;;
52978;SDS011;63430;53.186;6.598;2022-10-31T06:34:25;17.88;;;10.75;;
52978;SDS011;63430;53.186;6.598;2022-10-31T06:36:27;19.25;;;11.50;;
52978;SDS011;63430;53.186;6.598;2022-10-31T06:38:32;18.38;;;10.48;;
52978;SDS011;63430;53.186;6.598;2022-10-31T06:40:34;22.42;;;11.15;;
52978;SDS011;63430;53.186;6.598;2022-10-31T06:42:37;14.02;;;10.00;;
52978;SDS011;63430;53.186;6.598;2022-10-31T06:44:39;16.63;;;10.50;;
52978;SDS011;63430;53.186;6.598;2022-10-31T06:46:41;14.02;;;8.90;;
52978;SDS011;63430;53.186;6.598;2022-10-31T06:48:43;15.55;;;9.70;;
52978;SDS011;63430;53.186;6.598;2022-10-31T06:50:46;13.77;;;9.10;;
52978;SDS011;63430;53.186;6.598;2022-10-31T06:52:51;11.65;;;7.68;;
52978;SDS011;63430;53.186;6.598;2022-10-31T06:54:56;8.48;;;5.45;;
52978;SDS011;63430;53.186;6.598;2022-10-31T06:56:59;7.75;;;4.90;;
52978;SDS011;63430;53.186;6.598;2022-10-31T06:59:03;6.88;;;4.22;;
52978;SDS011;63430;53.186;6.598;2022-10-31T07:01:05;6.07;;;4.20;;
52978;SDS011;63430;53.186;6.598;2022-10-31T07:03:09;6.03;;;4.25;;
52978;SDS011;63430;53.186;6.598;2022-10-31T07:05:13;7.68;;;4.50;;
52978;SDS011;63430;53.186;6.598;2022-10-31T07:07:16;8.40;;;4.82;;
52978;SDS011;63430;53.186;6.598;2022-10-31T07:09:19;5.95;;;4.38;;
52978;SDS011;63430;53.186;6.598;2022-10-31T07:11:24;8.98;;;5.35;;
52978;SDS011;63430;53.186;6.598;2022-10-31T07:13:26;6.63;;;4.82;;
52978;SDS011;63430;53.186;6.598;2022-10-31T07:15:29;8.52;;;4.43;;
52978;SDS011;63430;53.186;6.598;2022-10-31T07:17:34;6.57;;;4.30;;
52978;SDS011;63430;53.186;6.598;2022-10-31T07:19:37;7.30;;;5.10;;
52978;SDS011;63430;53.186;6.598;2022-10-31T07:21:39;6.85;;;4.45;;
52978;SDS011;63430;53.186;6.598;2022-10-31T07:23:42;8.32;;;4.70;;
52978;SDS011;63430;53.186;6.598;2022-10-31T07:25:44;6.95;;;5.50;;
52978;SDS011;63430;53.186;6.598;2022-10-31T07:27:49;6.85;;;5.32;;
52978;SDS011;63430;53.186;6.598;2022-10-31T07:29:51;9.05;;;4.95;;
52978;SDS011;63430;53.186;6.598;2022-10-31T07:31:54;6.78;;;5.15;;
52978;SDS011;63430;53.186;6.598;2022-10-31T07:33:56;6.97;;;4.38;;
52978;SDS011;63430;53.186;6.598;2022-10-31T07:35:58;7.90;;;5.63;;
52978;SDS011;63430;53.186;6.598;2022-10-31T07:38:08;7.55;;;5.50;;
52978;SDS011;63430;53.186;6.598;2022-10-31T07:40:12;6.97;;;5.28;;
52978;SDS011;63430;53.186;6.598;2022-10-31T07:42:15;9.40;;;5.68;;
52978;SDS011;63430;53.186;6.598;2022-10-31T07:44:19;8.65;;;5.38;;
52978;SDS011;63430;53.186;6.598;2022-10-31T07:46:22;8.73;;;5.82;;
52978;SDS011;63430;53.186;6.598;2022-10-31T07:48:24;10.95;;;6.13;;
52978;SDS011;63430;53.186;6.598;2022-10-31T07:50:27;8.50;;;6.32;;
52978;SDS011;63430;53.186;6.598;2022-10-31T07:52:30;8.93;;;5.82;;
52978;SDS011;63430;53.186;6.598;2022-10-31T07:54:32;12.13;;;6.13;;
52978;SDS011;63430;53.186;6.598;2022-10-31T07:56:34;8.50;;;5.97;;
52978;SDS011;63430;53.186;6.598;2022-10-31T07:58:36;9.75;;;7.20;;
52978;SDS011;63430;53.186;6.598;2022-10-31T08:00:44;9.55;;;6.47;;
52978;SDS011;63430;53.186;6.598;2022-10-31T08:02:47;9.90;;;6.93;;
52978;SDS011;63430;53.186;6.598;2022-10-31T08:04:49;13.02;;;7.65;;
52978;SDS011;63430;53.186;6.598;2022-10-31T08:06:55;10.38;;;7.97;;
52978;SDS011;63430;53.186;6.598;2022-10-31T08:08:57;11.13;;;8.35;;
52978;SDS011;63430;53.186;6.598;2022-10-31T08:10:59;14.45;;;9.25;;
52978;SDS011;63430;53.186;6.598;2022-10-31T08:13:02;14.73;;;9.40;;
52978;SDS011;63430;53.186;6.598;2022-10-31T08:15:06;15.37;;;10.20;;
52978;SDS011;63430;53.186;6.598;2022-10-31T08:17:11;16.33;;;10.48;;
52978;SDS011;63430;53.186;6.598;2022-10-31T08:19:14;11.73;;;8.52;;
52978;SDS011;63430;53.186;6.598;2022-10-31T08:21:16;14.23;;;9.68;;
52978;SDS011;63430;53.186;6.598;2022-10-31T08:23:18;17.88;;;10.05;;
52978;SDS011;63430;53.186;6.598;2022-10-31T08:25:21;17.00;;;11.18;;
52978;SDS011;63430;53.186;6.598;2022-10-31T08:27:23;16.95;;;9.93;;
52978;SDS011;63430;53.186;6.598;2022-10-31T08:29:25;17.90;;;10.27;;
52978;SDS011;63430;53.186;6.598;2022-10-31T08:31:28;17.15;;;10.25;;
52978;SDS011;63430;53.186;6.598;2022-10-31T08:33:38;14.25;;;8.50;;
52978;SDS011;63430;53.186;6.598;2022-10-31T08:35:40;14.00;;;9.20;;
52978;SDS011;63430;53.186;6.598;2022-10-31T08:37:43;15.30;;;9.48;;
52978;SDS011;63430;53.186;6.598;2022-10-31T08:39:45;13.65;;;8.98;;
52978;SDS011;63430;53.186;6.598;2022-10-31T08:41:48;15.85;;;9.68;;
52978;SDS011;63430;53.186;6.598;2022-10-31T08:43:50;15.80;;;9.55;;
52978;SDS011;63430;53.186;6.598;2022-10-31T08:45:52;14.80;;;9.27;;
52978;SDS011;63430;53.186;6.598;2022-10-31T08:47:56;17.05;;;10.68;;
52978;SDS011;63430;53.186;6.598;2022-10-31T08:50:02;12.70;;;8.70;;
52978;SDS011;63430;53.186;6.598;2022-10-31T08:52:05;14.77;;;9.50;;
52978;SDS011;63430;53.186;6.598;2022-10-31T08:54:14;16.77;;;9.57;;
52978;SDS011;63430;53.186;6.598;2022-10-31T08:56:16;12.50;;;8.18;;
52978;SDS011;63430;53.186;6.598;2022-10-31T08:58:19;15.32;;;9.90;;
52978;SDS011;63430;53.186;6.598;2022-10-31T09:00:22;18.23;;;10.48;;
52978;SDS011;63430;53.186;6.598;2022-10-31T09:04:28;17.48;;;9.65;;
52978;SDS011;63430;53.186;6.598;2022-10-31T09:06:33;15.13;;;10.13;;
52978;SDS011;63430;53.186;6.598;2022-10-31T09:08:35;16.33;;;9.68;;
52978;SDS011;63430;53.186;6.598;2022-10-31T09:10:38;16.55;;;9.73;;
52978;SDS011;63430;53.186;6.598;2022-10-31T09:12:40;16.02;;;9.38;;
52978;SDS011;63430;53.186;6.598;2022-10-31T09:14:43;15.93;;;9.55;;
52978;SDS011;63430;53.186;6.598;2022-10-31T09:16:45;13.02;;;7.90;;
52978;SDS011;63430;53.186;6.598;2022-10-31T09:18:47;16.45;;;9.90;;
52978;SDS011;63430;53.186;6.598;2022-10-31T09:20:50;16.33;;;9.40;;
52978;SDS011;63430;53.186;6.598;2022-10-31T09:22:58;18.13;;;9.45;;
52978;SDS011;63430;53.186;6.598;2022-10-31T09:25:01;11.82;;;7.72;;
52978;SDS011;63430;53.186;6.598;2022-10-31T09:27:04;13.57;;;9.73;;
52978;SDS011;63430;53.186;6.598;2022-10-31T09:29:06;15.00;;;8.98;;
52978;SDS011;63430;53.186;6.598;2022-10-31T09:31:11;12.80;;;8.80;;
52978;SDS011;63430;53.186;6.598;2022-10-31T09:33:13;15.07;;;8.82;;
52978;SDS011;63430;53.186;6.598;2022-10-31T09:35:15;11.25;;;8.00;;
52978;SDS011;63430;53.186;6.598;2022-10-31T09:37:23;13.57;;;8.98;;
52978;SDS011;63430;53.186;6.598;2022-10-31T09:39:28;11.85;;;7.90;;
52978;SDS011;63430;53.186;6.598;2022-10-31T09:41:32;12.27;;;8.77;;
52978;SDS011;63430;53.186;6.598;2022-10-31T09:43:59;12.32;;;7.53;;
52978;SDS011;63430;53.186;6.598;2022-10-31T09:46:10;11.73;;;7.85;;
52978;SDS011;63430;53.186;6.598;2022-10-31T09:50:49;13.45;;;7.65;;
52978;SDS011;63430;53.186;6.598;2022-10-31T09:52:58;13.35;;;8.57;;
52978;SDS011;63430;53.186;6.598;2022-10-31T09:55:08;14.80;;;8.57;;
52978;SDS011;63430;53.186;6.598;2022-10-31T09:57:18;16.55;;;9.15;;
52978;SDS011;63430;53.186;6.598;2022-10-31T09:59:26;14.90;;;8.95;;
52978;SDS011;63430;53.186;6.598;2022-10-31T10:01:34;12.45;;;7.80;;
52978;SDS011;63430;53.186;6.598;2022-10-31T10:03:45;11.60;;;8.13;;
52978;SDS011;63430;53.186;6.598;2022-10-31T10:05:52;10.70;;;7.20;;
52978;SDS011;63430;53.186;6.598;2022-10-31T10:08:03;15.77;;;8.32;;
52978;SDS011;63430;53.186;6.598;2022-10-31T10:10:18;19.40;;;8.52;;
52978;SDS011;63430;53.186;6.598;2022-10-31T10:12:29;12.60;;;7.53;;
52978;SDS011;63430;53.186;6.598;2022-10-31T10:14:47;12.52;;;7.43;;
52978;SDS011;63430;53.186;6.598;2022-10-31T10:17:03;15.85;;;7.63;;
52978;SDS011;63430;53.186;6.598;2022-10-31T10:19:19;10.95;;;6.47;;
52978;SDS011;63430;53.186;6.598;2022-10-31T10:21:33;18.63;;;8.35;;
52978;SDS011;63430;53.186;6.598;2022-10-31T10:23:50;16.15;;;8.52;;
52978;SDS011;63430;53.186;6.598;2022-10-31T10:26:04;11.77;;;7.38;;
52978;SDS011;63430;53.186;6.598;2022-10-31T10:28:14;15.32;;;7.63;;
52978;SDS011;63430;53.186;6.598;2022-10-31T10:30:23;13.75;;;8.45;;
52978;SDS011;63430;53.186;6.598;2022-10-31T10:32:34;14.77;;;7.65;;
52978;SDS011;63430;53.186;6.598;2022-10-31T10:34:42;13.43;;;8.23;;
52978;SDS011;63430;53.186;6.598;2022-10-31T10:36:48;15.38;;;8.13;;
52978;SDS011;63430;53.186;6.598;2022-10-31T10:38:57;13.52;;;8.15;;
52978;SDS011;63430;53.186;6.598;2022-10-31T10:41:05;14.48;;;8.02;;
52978;SDS011;63430;53.186;6.598;2022-10-31T10:43:18;14.40;;;8.32;;
52978;SDS011;63430;53.186;6.598;2022-10-31T10:45:22;13.18;;;8.00;;
52978;SDS011;63430;53.186;6.598;2022-10-31T10:47:43;13.38;;;7.78;;
52978;SDS011;63430;53.186;6.598;2022-10-31T10:49:55;12.80;;;9.13;;
52978;SDS011;63430;53.186;6.598;2022-10-31T10:51:58;12.70;;;8.48;;
52978;SDS011;63430;53.186;6.598;2022-10-31T10:57:03;14.85;;;8.32;;
52978;SDS011;63430;53.186;6.598;2022-10-31T10:59:13;14.23;;;8.40;;
52978;SDS011;63430;53.186;6.598;2022-10-31T11:01:19;14.43;;;8.73;;
52978;SDS011;63430;53.186;6.598;2022-10-31T11:03:23;14.98;;;8.25;;
52978;SDS011;63430;53.186;6.598;2022-10-31T11:05:28;12.07;;;8.73;;
52978;SDS011;63430;53.186;6.598;2022-10-31T11:07:39;12.07;;;8.30;;
52978;SDS011;63430;53.186;6.598;2022-10-31T11:09:42;11.77;;;7.88;;
52978;SDS011;63430;53.186;6.598;2022-10-31T11:11:44;13.43;;;7.88;;
52978;SDS011;63430;53.186;6.598;2022-10-31T11:13:50;16.25;;;9.88;;
52978;SDS011;63430;53.186;6.598;2022-10-31T11:15:58;12.65;;;7.80;;
52978;SDS011;63430;53.186;6.598;2022-10-31T11:18:02;13.07;;;7.43;;
52978;SDS011;63430;53.186;6.598;2022-10-31T11:20:06;13.33;;;8.00;;
52978;SDS011;63430;53.186;6.598;2022-10-31T11:22:26;12.20;;;7.53;;
52978;SDS011;63430;53.186;6.598;2022-10-31T11:24:39;8.38;;;5.60;;
52978;SDS011;63430;53.186;6.598;2022-10-31T11:26:43;8.50;;;5.60;;
52978;SDS011;63430;53.186;6.598;2022-10-31T11:28:58;8.18;;;5.30;;
52978;SDS011;63430;53.186;6.598;2022-10-31T11:31:05;9.30;;;6.40;;
52978;SDS011;63430;53.186;6.598;2022-10-31T11:33:11;8.70;;;5.32;;
52978;SDS011;63430;53.186;6.598;2022-10-31T11:35:19;8.38;;;4.90;;
52978;SDS011;63430;53.186;6.598;2022-10-31T11:37:24;7.88;;;4.68;;
52978;SDS011;63430;53.186;6.598;2022-10-31T11:39:28;9.60;;;4.75;;
52978;SDS011;63430;53.186;6.598;2022-10-31T11:41:31;6.75;;;4.50;;
52978;SDS011;63430;53.186;6.598;2022-10-31T11:43:36;7.78;;;4.63;;
52978;SDS011;63430;53.186;6.598;2022-10-31T11:45:41;7.75;;;4.97;;
52978;SDS011;63430;53.186;6.598;2022-10-31T11:47:44;10.48;;;5.45;;
52978;SDS011;63430;53.186;6.598;2022-10-31T11:49:49;8.50;;;4.57;;
52978;SDS011;63430;53.186;6.598;2022-10-31T11:51:52;6.78;;;4.95;;
52978;SDS011;63430;53.186;6.598;2022-10-31T11:53:57;7.93;;;5.10;;
52978;SDS011;63430;53.186;6.598;2022-10-31T11:56:05;8.63;;;4.78;;
52978;SDS011;63430;53.186;6.598;2022-10-31T11:58:20;8.60;;;4.90;;
52978;SDS011;63430;53.186;6.598;2022-10-31T12:00:24;8.63;;;5.45;;
52978;SDS011;63430;53.186;6.598;2022-10-31T12:02:31;9.15;;;5.25;;
52978;SDS011;63430;53.186;6.598;2022-10-31T12:04:36;7.03;;;4.80;;
52978;SDS011;63430;53.186;6.598;2022-10-31T12:06:42;8.35;;;5.00;;
52978;SDS011;63430;53.186;6.598;2022-10-31T12:08:47;8.60;;;4.72;;
52978;SDS011;63430;53.186;6.598;2022-10-31T12:10:51;10.80;;;5.40;;
52978;SDS011;63430;53.186;6.598;2022-10-31T12:13:04;10.45;;;5.72;;
52978;SDS011;63430;53.186;6.598;2022-10-31T12:15:29;8.10;;;4.73;;
52978;SDS011;63430;53.186;6.598;2022-10-31T12:17:39;7.40;;;4.55;;
52978;SDS011;63430;53.186;6.598;2022-10-31T12:19:48;12.90;;;5.43;;
52978;SDS011;63430;53.186;6.598;2022-10-31T12:22:04;8.02;;;4.97;;
52978;SDS011;63430;53.186;6.598;2022-10-31T12:24:14;9.80;;;4.63;;
52978;SDS011;63430;53.186;6.598;2022-10-31T12:26:26;14.03;;;6.50;;
52978;SDS011;63430;53.186;6.598;2022-10-31T12:28:49;7.22;;;5.07;;
52978;SDS011;63430;53.186;6.598;2022-10-31T12:31:09;8.65;;;5.38;;
52978;SDS011;63430;53.186;6.598;2022-10-31T12:33:29;12.23;;;5.72;;
52978;SDS011;63430;53.186;6.598;2022-10-31T12:35:46;8.32;;;5.82;;
52978;SDS011;63430;53.186;6.598;2022-10-31T12:40:33;8.57;;;4.95;;
52978;SDS011;63430;53.186;6.598;2022-10-31T12:42:48;14.32;;;6.05;;